Time;durP1;ratioP1;P1;durP2;ratioP2;P2;SDS_P1;SDS_P2;PMS_P1;PMS_P2;Temp;Humidity;BMP_temperature;BMP_pressure;BME280_temperature;BME280_humidity;BME280_pressure;Samples;Min_cycle;Max_cycle;Signal;HPM_P1;HPM_P2
2022/04/08 00:02:03;;;;;;;7.60;1.17;;;7.20;99.90;;;;;;5047974;28;20426;-69
2022/04/08 00:04:30;;;;;;;1.10;0.83;;;7.20;99.90;;;;;;5047664;28;20831;-70
2022/04/08 00:06:57;;;;;;;1.63;1.10;;;7.20;99.90;;;;;;5063545;28;20421;-68
2022/04/08 00:09:25;;;;;;;3.43;2.33;;;7.30;99.90;;;;;;5063407;28;20457;-69
2022/04/08 00:11:52;;;;;;;1.00;0.90;;;7.20;99.90;;;;;;5065991;28;20503;-69
2022/04/08 00:14:19;;;;;;;1.60;1.27;;;7.20;99.90;;;;;;5057677;28;20521;-70
2022/04/08 00:16:45;;;;;;;4.83;1.33;;;7.10;99.90;;;;;;5050241;28;20640;-68
2022/04/08 00:19:12;;;;;;;3.10;2.57;;;7.20;99.90;;;;;;5049490;28;20858;-69
2022/04/08 00:21:39;;;;;;;1.53;0.93;;;7.20;99.90;;;;;;5048728;28;20432;-70
2022/04/08 00:24:07;;;;;;;1.43;1.23;;;7.20;99.90;;;;;;5046358;28;20445;-69
2022/04/08 00:26:35;;;;;;;1.53;1.00;;;7.30;99.90;;;;;;5052350;28;20974;-69
2022/04/08 00:29:01;;;;;;;4.63;1.40;;;7.30;99.90;;;;;;5048190;28;20457;-70
2022/04/08 00:31:28;;;;;;;1.10;0.93;;;7.30;99.90;;;;;;5052082;28;20483;-70
2022/04/08 00:33:55;;;;;;;7.53;1.57;;;7.20;99.90;;;;;;5049943;28;20540;-69
2022/04/08 00:36:22;;;;;;;1.50;1.07;;;7.20;99.90;;;;;;5045834;28;20479;-69
2022/04/08 00:38:49;;;;;;;5.10;1.93;;;7.20;99.90;;;;;;5049888;28;20450;-70
2022/04/08 00:41:16;;;;;;;1.50;0.97;;;7.20;99.90;;;;;;5047494;28;20469;-69
2022/04/08 00:43:44;;;;;;;1.83;1.20;;;7.30;99.90;;;;;;5050350;28;20896;-71
2022/04/08 00:46:11;;;;;;;1.67;1.10;;;7.20;99.90;;;;;;5047853;28;20452;-67
2022/04/08 00:48:38;;;;;;;0.90;0.67;;;7.40;99.90;;;;;;5053227;28;20471;-70
2022/04/08 00:51:06;;;;;;;1.23;0.90;;;7.40;99.90;;;;;;5045049;28;20521;-69
2022/04/08 00:53:35;;;;;;;2.33;1.03;;;7.40;99.90;;;;;;5047292;28;21054;-70
2022/04/08 00:56:03;;;;;;;4.17;1.47;;;7.40;99.90;;;;;;5049322;28;20457;-68
2022/04/08 00:58:30;;;;;;;1.00;0.90;;;7.30;99.90;;;;;;5052780;28;20953;-69
2022/04/08 01:00:58;;;;;;;1.10;0.93;;;7.20;99.90;;;;;;5050211;28;20484;-70
2022/04/08 01:03:25;;;;;;;5.40;1.20;;;7.20;99.90;;;;;;5050513;28;20494;-69
2022/04/08 01:05:52;;;;;;;5.00;1.40;;;7.20;99.90;;;;;;5051794;28;20468;-70
2022/04/08 01:08:18;;;;;;;3.97;1.43;;;7.20;99.90;;;;;;5046627;28;20806;-68
2022/04/08 01:10:45;;;;;;;1.63;1.20;;;7.10;99.90;;;;;;5048075;28;20437;-69
2022/04/08 01:13:12;;;;;;;1.50;1.00;;;7.10;99.90;;;;;;5046826;28;20448;-69
2022/04/08 01:15:39;;;;;;;3.03;1.30;;;7.10;99.90;;;;;;5046383;28;20619;-68
2022/04/08 01:18:08;;;;;;;1.67;1.13;;;7.10;99.90;;;;;;5044353;28;21035;-68
2022/04/08 01:20:35;;;;;;;4.90;1.83;;;7.00;99.90;;;;;;5041380;28;20465;-69
2022/04/08 01:23:02;;;;;;;1.70;1.00;;;7.00;99.90;;;;;;5050253;28;20506;-70
2022/04/08 01:25:30;;;;;;;2.83;0.90;;;7.00;99.90;;;;;;5047337;28;20919;-69
2022/04/08 01:27:57;;;;;;;4.23;1.80;;;7.00;99.90;;;;;;5045447;28;20464;-70
2022/04/08 01:30:24;;;;;;;3.87;1.07;;;6.90;99.90;;;;;;5048259;28;20460;-70
2022/04/08 01:32:50;;;;;;;1.43;1.30;;;6.90;99.90;;;;;;5046532;28;20924;-70
2022/04/08 01:35:17;;;;;;;2.13;1.27;;;7.00;99.90;;;;;;5043039;28;20533;-70
2022/04/08 01:37:44;;;;;;;1.50;1.20;;;7.00;99.90;;;;;;5048025;28;20518;-68
2022/04/08 01:40:11;;;;;;;5.30;1.07;;;6.90;99.90;;;;;;5043944;28;20451;-70
2022/04/08 01:42:39;;;;;;;1.50;0.70;;;7.00;99.90;;;;;;5046958;28;20444;-69
2022/04/08 01:45:08;;;;;;;4.30;1.27;;;7.00;99.90;;;;;;5053632;28;20446;-68
2022/04/08 01:47:34;;;;;;;3.20;1.73;;;6.90;99.90;;;;;;5048233;28;20553;-70
2022/04/08 01:50:01;;;;;;;2.97;1.30;;;6.90;99.90;;;;;;5050239;28;20871;-68
2022/04/08 01:52:28;;;;;;;4.67;1.13;;;7.00;99.90;;;;;;5049345;28;20962;-69
2022/04/08 01:54:55;;;;;;;2.70;1.47;;;7.00;99.90;;;;;;5041698;28;21023;-69
2022/04/08 01:57:23;;;;;;;1.20;1.10;;;7.00;99.90;;;;;;5046476;28;20474;-69
2022/04/08 01:59:52;;;;;;;7.30;2.50;;;7.00;99.90;;;;;;5044436;28;20961;-70
2022/04/08 02:02:19;;;;;;;4.73;1.77;;;6.90;99.90;;;;;;5045076;28;20776;-69
2022/04/08 02:04:46;;;;;;;1.40;1.17;;;6.80;99.90;;;;;;5049440;28;20554;-69
2022/04/08 02:07:12;;;;;;;1.23;0.90;;;6.80;99.90;;;;;;5053553;28;20433;-69
2022/04/08 02:09:39;;;;;;;1.27;1.10;;;6.80;99.90;;;;;;5055258;28;20429;-68
2022/04/08 02:12:06;;;;;;;3.07;0.90;;;6.80;99.90;;;;;;5055396;28;20433;-68
2022/04/08 02:14:33;;;;;;;3.20;1.70;;;6.70;99.90;;;;;;5051556;28;20479;-68
2022/04/08 02:17:01;;;;;;;2.63;1.10;;;6.80;99.90;;;;;;5054233;28;20548;-68
2022/04/08 02:19:27;;;;;;;10.90;1.80;;;6.80;99.90;;;;;;5048377;28;20445;-71
2022/04/08 02:21:54;;;;;;;2.53;1.33;;;6.70;99.90;;;;;;5050589;28;20958;-69
2022/04/08 02:24:21;;;;;;;19.83;1.47;;;6.70;99.90;;;;;;5049510;28;20482;-70
2022/04/08 02:26:48;;;;;;;4.83;0.90;;;6.60;99.90;;;;;;5048984;28;20837;-69
2022/04/08 02:29:14;;;;;;;1.40;1.10;;;6.50;99.90;;;;;;5056992;28;20433;-71
2022/04/08 02:31:41;;;;;;;2.90;0.97;;;6.40;99.90;;;;;;5047263;28;20466;-69
2022/04/08 02:34:09;;;;;;;1.50;1.23;;;6.30;99.90;;;;;;5046871;28;20540;-70
2022/04/08 02:36:36;;;;;;;3.27;1.30;;;6.20;99.90;;;;;;5049294;28;20474;-68
2022/04/08 02:39:03;;;;;;;1.73;1.60;;;6.30;99.90;;;;;;5049743;28;21531;-69
2022/04/08 02:41:30;;;;;;;1.50;1.27;;;6.30;99.90;;;;;;5050432;28;20886;-70
2022/04/08 02:43:56;;;;;;;1.90;1.80;;;6.30;99.90;;;;;;5059448;28;20564;-71
2022/04/08 02:46:23;;;;;;;1.53;1.40;;;6.30;99.90;;;;;;5047177;28;20923;-71
2022/04/08 02:48:50;;;;;;;5.50;1.87;;;6.30;99.90;;;;;;5050398;28;20468;-70
2022/04/08 02:51:18;;;;;;;6.37;2.03;;;6.40;99.90;;;;;;5052712;28;20541;-69
2022/04/08 02:53:45;;;;;;;1.83;1.37;;;6.40;99.90;;;;;;5049834;28;28620;-70
2022/04/08 02:56:12;;;;;;;1.50;1.13;;;6.50;99.90;;;;;;5053074;28;21403;-69
2022/04/08 02:58:38;;;;;;;3.77;1.67;;;6.50;99.90;;;;;;5052273;28;20814;-70
2022/04/08 03:01:05;;;;;;;3.63;1.10;;;6.60;99.90;;;;;;5051450;28;20455;-70
2022/04/08 03:03:31;;;;;;;2.60;1.50;;;6.50;99.90;;;;;;5049080;28;20437;-70
2022/04/08 03:05:59;;;;;;;1.40;1.27;;;6.50;99.90;;;;;;5046289;28;20649;-70
2022/04/08 03:08:29;;;;;;;4.00;1.50;;;6.70;99.90;;;;;;5051483;28;21126;-70
2022/04/08 03:10:56;;;;;;;9.23;2.20;;;6.60;99.90;;;;;;5047758;28;20462;-70
2022/04/08 03:13:23;;;;;;;6.70;2.07;;;6.70;99.90;;;;;;5062054;28;20437;-70
2022/04/08 03:15:50;;;;;;;0.90;0.70;;;6.60;99.90;;;;;;5054621;28;20480;-68
2022/04/08 03:18:17;;;;;;;3.10;1.67;;;6.50;99.90;;;;;;5046968;28;20522;-70
2022/04/08 03:20:44;;;;;;;4.10;1.40;;;6.50;99.90;;;;;;5052819;28;20782;-69
2022/04/08 03:23:10;;;;;;;10.30;1.57;;;6.40;99.90;;;;;;5051703;28;20469;-68
2022/04/08 03:25:38;;;;;;;9.10;1.23;;;6.50;99.90;;;;;;5053279;28;20476;-68
2022/04/08 03:28:05;;;;;;;5.70;2.83;;;6.40;99.90;;;;;;5056427;28;20551;-68
2022/04/08 03:30:32;;;;;;;3.77;1.53;;;6.40;99.90;;;;;;5052682;28;20466;-70
2022/04/08 03:32:59;;;;;;;2.87;1.20;;;6.40;99.90;;;;;;5056970;28;20517;-70
2022/04/08 03:35:26;;;;;;;1.63;1.40;;;6.40;99.90;;;;;;5057498;28;20544;-69
2022/04/08 03:37:52;;;;;;;2.13;1.40;;;6.40;99.90;;;;;;5051605;28;20435;-69
2022/04/08 03:40:19;;;;;;;1.40;1.30;;;6.40;99.90;;;;;;5055371;28;20517;-69
2022/04/08 03:42:48;;;;;;;5.30;1.83;;;6.40;99.90;;;;;;5050899;28;20456;-69
2022/04/08 03:45:15;;;;;;;17.67;2.57;;;6.40;99.90;;;;;;5044547;28;20457;-70
2022/04/08 03:47:41;;;;;;;10.90;2.20;;;6.10;99.90;;;;;;5048203;28;20462;-68
2022/04/08 03:50:08;;;;;;;7.90;2.10;;;6.20;99.90;;;;;;5049780;28;20427;-69
2022/04/08 03:52:35;;;;;;;3.93;1.97;;;6.20;99.90;;;;;;5054695;28;20455;-68
2022/04/08 03:55:03;;;;;;;2.23;1.57;;;6.20;99.90;;;;;;5056875;28;20457;-69
2022/04/08 03:57:29;;;;;;;21.40;2.60;;;6.20;99.90;;;;;;5060072;28;20581;-69
2022/04/08 03:59:57;;;;;;;4.50;1.00;;;6.20;99.90;;;;;;5053965;28;20441;-69
2022/04/08 04:02:24;;;;;;;2.60;1.20;;;6.20;99.90;;;;;;5055918;28;20661;-70
2022/04/08 04:04:51;;;;;;;5.77;1.77;;;6.10;99.90;;;;;;5056148;28;20505;-69
2022/04/08 04:07:18;;;;;;;1.60;0.97;;;6.10;99.90;;;;;;5055072;28;20876;-69
2022/04/08 04:09:46;;;;;;;2.90;1.40;;;6.30;99.90;;;;;;5049338;28;20467;-70
2022/04/08 04:12:14;;;;;;;4.67;2.73;;;6.30;99.90;;;;;;5055528;28;21376;-70
2022/04/08 04:14:40;;;;;;;1.20;0.97;;;6.20;99.90;;;;;;5056407;28;21026;-71
2022/04/08 04:17:09;;;;;;;1.23;1.03;;;6.20;99.90;;;;;;5051358;28;20527;-70
2022/04/08 04:19:35;;;;;;;5.17;1.70;;;6.20;99.90;;;;;;5050222;28;20502;-70
2022/04/08 04:22:02;;;;;;;2.83;1.27;;;6.20;99.90;;;;;;5051614;28;21099;-70
2022/04/08 04:24:29;;;;;;;1.73;1.07;;;6.20;99.90;;;;;;5046191;28;20899;-70
2022/04/08 04:26:56;;;;;;;1.77;1.30;;;6.10;99.90;;;;;;5056910;28;20452;-71
2022/04/08 04:29:23;;;;;;;2.60;1.70;;;6.10;99.90;;;;;;5047567;28;20441;-69
2022/04/08 04:31:50;;;;;;;1.90;1.23;;;6.10;99.90;;;;;;5049074;28;20426;-70
2022/04/08 04:34:18;;;;;;;2.53;1.20;;;6.20;99.90;;;;;;5052621;28;20839;-71
2022/04/08 04:36:45;;;;;;;3.77;1.30;;;6.10;99.90;;;;;;5055680;28;20468;-71
2022/04/08 04:39:11;;;;;;;3.90;1.07;;;6.20;99.90;;;;;;5048716;28;20436;-70
2022/04/08 04:41:38;;;;;;;1.27;1.00;;;6.20;99.90;;;;;;5057134;28;20530;-70
2022/04/08 04:44:06;;;;;;;6.67;1.53;;;6.10;99.90;;;;;;5048676;28;20464;-72
2022/04/08 04:46:32;;;;;;;1.53;1.03;;;6.10;99.90;;;;;;5052522;28;20438;-69
2022/04/08 04:48:59;;;;;;;1.03;0.90;;;6.10;99.90;;;;;;5057772;28;20510;-70
2022/04/08 04:51:30;;;;;;;1.50;1.40;;;6.20;99.90;;;;;;5063034;28;20455;-68
2022/04/08 04:53:57;;;;;;;2.20;1.20;;;6.10;99.90;;;;;;5067812;28;20535;-69
2022/04/08 04:56:24;;;;;;;2.90;1.83;;;6.10;99.90;;;;;;5064537;28;20538;-69
2022/04/08 04:58:50;;;;;;;1.93;1.00;;;6.00;99.90;;;;;;5063578;28;20487;-70
2022/04/08 05:01:17;;;;;;;1.80;1.20;;;5.90;99.90;;;;;;5055766;28;20504;-70
2022/04/08 05:03:44;;;;;;;16.30;2.20;;;6.00;99.90;;;;;;5057607;28;20453;-70
2022/04/08 05:06:10;;;;;;;1.77;0.90;;;6.00;99.90;;;;;;5058837;28;21004;-70
2022/04/08 05:08:38;;;;;;;2.30;1.37;;;5.90;99.90;;;;;;5058684;28;20479;-70
2022/04/08 05:11:05;;;;;;;9.03;1.63;;;6.00;99.90;;;;;;5056499;28;20425;-70
2022/04/08 05:13:32;;;;;;;17.40;1.60;;;6.00;99.90;;;;;;5057515;28;20495;-69
2022/04/08 05:15:59;;;;;;;8.93;1.90;;;6.20;99.90;;;;;;5057349;28;20483;-69
2022/04/08 05:18:26;;;;;;;1.33;1.13;;;6.30;99.90;;;;;;5058349;28;20438;-69
2022/04/08 05:20:52;;;;;;;22.23;2.20;;;6.30;99.90;;;;;;5056690;28;20921;-69
2022/04/08 05:23:19;;;;;;;3.43;1.30;;;6.20;99.90;;;;;;5060287;28;20474;-71
2022/04/08 05:25:47;;;;;;;1.37;1.27;;;6.30;99.90;;;;;;5057633;28;20429;-70
2022/04/08 05:28:15;;;;;;;2.70;1.47;;;6.30;99.90;;;;;;5058082;28;20458;-69
2022/04/08 05:30:42;;;;;;;1.20;1.10;;;6.40;99.90;;;;;;5057304;28;20484;-71
2022/04/08 05:33:09;;;;;;;3.23;1.30;;;6.40;99.90;;;;;;5055312;28;20456;-69
2022/04/08 05:35:35;;;;;;;22.07;2.53;;;6.60;99.90;;;;;;5058097;28;20457;-68
2022/04/08 05:38:02;;;;;;;2.17;1.67;;;6.70;99.90;;;;;;5059434;28;21039;-70
2022/04/08 05:40:29;;;;;;;5.23;2.07;;;6.90;99.90;;;;;;5052599;28;20465;-70
2022/04/08 05:42:57;;;;;;;2.70;1.63;;;6.90;99.90;;;;;;5056862;28;20463;-70
2022/04/08 05:45:24;;;;;;;2.83;1.70;;;6.80;99.90;;;;;;5056560;28;20612;-69
2022/04/08 05:47:52;;;;;;;1.10;0.80;;;6.90;99.90;;;;;;5070845;22;20495;-68
2022/04/08 05:50:19;;;;;;;3.53;2.20;;;6.90;99.90;;;;;;5048168;28;20892;-68
2022/04/08 05:52:47;;;;;;;1.90;1.40;;;6.80;99.90;;;;;;5060145;28;20457;-68
2022/04/08 05:55:14;;;;;;;1.40;1.20;;;6.80;99.90;;;;;;5056226;28;20451;-68
2022/04/08 05:57:41;;;;;;;2.90;1.83;;;6.80;99.90;;;;;;5055836;28;20548;-68
2022/04/08 06:00:13;;;;;;;2.10;1.43;;;6.80;99.90;;;;;;5060445;28;20910;-68
2022/04/08 06:02:40;;;;;;;1.67;1.50;;;6.90;99.90;;;;;;5055700;28;20467;-68
2022/04/08 06:05:08;;;;;;;6.10;1.73;;;7.00;99.90;;;;;;5057778;28;20455;-68
2022/04/08 06:07:35;;;;;;;2.03;1.83;;;7.00;99.90;;;;;;5053534;28;20452;-68
2022/04/08 06:10:03;;;;;;;2.20;1.80;;;7.00;99.90;;;;;;5058967;28;20438;-68
2022/04/08 06:12:30;;;;;;;1.97;1.33;;;7.00;99.90;;;;;;5060290;28;20437;-69
2022/04/08 06:15:00;;;;;;;5.10;1.87;;;7.10;99.90;;;;;;5060823;28;20441;-68
2022/04/08 06:17:35;;;;;;;5.17;2.83;;;7.10;99.90;;;;;;5051419;28;25006;-67
2022/04/08 06:20:02;;;;;;;3.73;1.80;;;7.40;99.90;;;;;;5058621;28;20426;-67
2022/04/08 06:22:29;;;;;;;1.57;1.47;;;7.60;99.90;;;;;;5049379;28;20538;-69
2022/04/08 06:24:55;;;;;;;3.77;1.80;;;7.60;99.90;;;;;;5056609;28;20454;-68
2022/04/08 06:27:22;;;;;;;3.27;1.80;;;7.70;99.90;;;;;;5057884;28;20899;-69
2022/04/08 06:29:49;;;;;;;1.67;1.40;;;8.00;99.90;;;;;;5059315;28;20527;-70
2022/04/08 06:32:15;;;;;;;2.33;2.13;;;8.20;99.90;;;;;;5058029;28;20465;-68
2022/04/08 06:34:43;;;;;;;9.50;2.27;;;8.30;99.90;;;;;;5059490;28;20954;-68
2022/04/08 06:37:10;;;;;;;3.73;2.10;;;8.40;99.90;;;;;;5054805;28;20487;-68
2022/04/08 06:39:37;;;;;;;9.07;3.03;;;8.50;99.90;;;;;;5055291;28;21219;-68
2022/04/08 06:42:04;;;;;;;6.40;1.67;;;8.70;99.90;;;;;;5057316;28;20421;-68
2022/04/08 06:44:31;;;;;;;1.80;1.10;;;9.10;99.90;;;;;;5060244;28;22103;-68
2022/04/08 06:46:58;;;;;;;3.00;1.40;;;9.40;99.90;;;;;;5059437;28;20458;-67
2022/04/08 06:49:24;;;;;;;1.73;1.50;;;9.50;99.90;;;;;;5059205;28;20860;-69
2022/04/08 06:51:58;;;;;;;3.20;2.00;;;9.60;99.90;;;;;;5061639;28;20481;-70
2022/04/08 06:54:24;;;;;;;2.07;1.80;;;9.60;99.90;;;;;;5064884;28;20468;-69
2022/04/08 06:56:51;;;;;;;3.70;1.83;;;9.90;99.90;;;;;;5068045;28;20494;-70
2022/04/08 06:59:18;;;;;;;6.50;3.17;;;9.90;99.90;;;;;;5062919;28;20482;-69
2022/04/08 07:01:45;;;;;;;3.40;2.03;;;10.10;99.90;;;;;;5062405;28;20492;-69
2022/04/08 07:04:11;;;;;;;3.57;1.83;;;10.00;99.90;;;;;;5063794;28;20467;-69
2022/04/08 07:06:38;;;;;;;3.20;2.13;;;9.90;99.90;;;;;;5061241;28;20828;-69
2022/04/08 07:09:06;;;;;;;1.93;1.50;;;9.80;99.90;;;;;;5064777;28;20561;-66
2022/04/08 07:11:33;;;;;;;2.30;1.37;;;9.90;99.90;;;;;;5059129;28;20551;-69
2022/04/08 07:13:59;;;;;;;6.23;3.60;;;9.60;99.90;;;;;;5062433;28;20507;-70
2022/04/08 07:16:26;;;;;;;7.90;3.40;;;9.50;99.90;;;;;;5059420;28;20488;-70
2022/04/08 07:18:53;;;;;;;2.60;1.80;;;9.20;99.90;;;;;;5067845;28;20479;-69
2022/04/08 07:21:19;;;;;;;2.03;1.47;;;9.50;99.90;;;;;;5068487;28;21316;-69
2022/04/08 07:23:46;;;;;;;4.67;2.50;;;9.90;99.90;;;;;;5060986;28;20471;-68
2022/04/08 07:26:14;;;;;;;2.60;2.30;;;10.00;99.90;;;;;;5061077;28;20836;-68
2022/04/08 07:28:41;;;;;;;4.33;3.00;;;10.00;99.90;;;;;;5060796;28;20478;-68
2022/04/08 07:31:08;;;;;;;7.43;2.50;;;9.80;99.90;;;;;;5059892;28;20444;-69
2022/04/08 07:33:34;;;;;;;2.93;2.13;;;9.90;99.90;;;;;;5062731;28;20433;-70
2022/04/08 07:36:03;;;;;;;2.73;2.53;;;10.00;99.90;;;;;;5060464;28;20455;-69
2022/04/08 07:38:30;;;;;;;5.87;2.87;;;10.00;99.90;;;;;;5058295;28;20494;-70
2022/04/08 07:40:57;;;;;;;6.17;3.00;;;9.90;99.90;;;;;;5058996;28;20478;-68
2022/04/08 07:43:25;;;;;;;5.93;3.00;;;9.90;99.90;;;;;;5059858;28;20470;-69
2022/04/08 07:45:52;;;;;;;3.57;2.70;;;9.80;99.90;;;;;;5063068;28;20433;-69
2022/04/08 07:48:19;;;;;;;5.27;2.93;;;9.70;99.90;;;;;;5061349;28;20456;-69
2022/04/08 07:50:45;;;;;;;4.87;2.33;;;9.50;99.90;;;;;;5063374;28;20490;-69
2022/04/08 07:53:12;;;;;;;3.30;3.00;;;9.30;99.90;;;;;;5063855;28;20516;-70
2022/04/08 07:55:39;;;;;;;4.03;3.00;;;9.40;99.90;;;;;;5063013;28;20512;-70
2022/04/08 07:58:06;;;;;;;5.57;3.50;;;9.70;99.90;;;;;;5064911;28;20464;-68
2022/04/08 08:00:34;;;;;;;3.17;2.87;;;9.80;99.90;;;;;;5061390;28;21367;-70
2022/04/08 08:03:01;;;;;;;5.43;3.50;;;9.80;99.90;;;;;;5061011;28;20434;-68
2022/04/08 08:05:29;;;;;;;7.33;3.23;;;10.00;99.90;;;;;;5063332;28;20461;-70
2022/04/08 08:07:57;;;;;;;6.90;4.50;;;10.30;99.90;;;;;;5062724;28;20463;-70
2022/04/08 08:10:25;;;;;;;4.77;3.63;;;10.10;99.90;;;;;;5057115;28;20454;-68
2022/04/08 08:12:53;;;;;;;7.47;3.30;;;10.00;99.90;;;;;;5066007;28;20463;-68
2022/04/08 08:15:21;;;;;;;7.53;4.83;;;10.10;99.90;;;;;;5060752;28;20459;-68
2022/04/08 08:17:50;;;;;;;6.80;3.67;;;10.20;99.90;;;;;;5063382;28;21219;-69
2022/04/08 08:20:19;;;;;;;5.03;4.10;;;10.40;99.90;;;;;;5061899;28;20433;-69
2022/04/08 08:22:47;;;;;;;6.77;3.73;;;10.20;99.90;;;;;;5069597;28;20454;-70
2022/04/08 08:25:14;;;;;;;5.60;3.93;;;10.00;99.90;;;;;;5054438;28;20451;-69
2022/04/08 08:27:42;;;;;;;3.70;3.23;;;10.10;99.90;;;;;;5039443;28;20479;-69
2022/04/08 08:30:11;;;;;;;4.63;4.00;;;10.00;99.90;;;;;;5053283;28;20467;-66
2022/04/08 08:32:38;;;;;;;6.33;4.00;;;10.20;99.90;;;;;;5062010;28;20433;-67
2022/04/08 08:35:08;;;;;;;6.07;4.07;;;10.40;99.90;;;;;;5060815;28;20493;-69
2022/04/08 08:37:36;;;;;;;4.07;3.30;;;10.30;99.90;;;;;;5059030;28;20486;-70
2022/04/08 08:40:04;;;;;;;7.00;3.73;;;10.40;99.90;;;;;;5057762;28;20543;-71
2022/04/08 08:42:32;;;;;;;3.00;2.50;;;10.30;99.90;;;;;;5062834;28;20865;-69
2022/04/08 08:44:58;;;;;;;4.60;4.30;;;10.20;99.90;;;;;;5062517;28;21143;-69
2022/04/08 08:47:27;;;;;;;4.40;3.23;;;10.00;99.90;;;;;;5062531;28;20787;-70
2022/04/08 08:49:55;;;;;;;4.43;2.83;;;10.00;99.90;;;;;;5058122;28;20448;-70
2022/04/08 08:52:24;;;;;;;5.30;3.87;;;10.10;99.90;;;;;;5056195;28;20454;-69
2022/04/08 08:54:51;;;;;;;11.63;3.70;;;10.30;99.90;;;;;;5059254;28;20433;-70
2022/04/08 08:57:19;;;;;;;8.20;3.93;;;10.30;99.90;;;;;;5061993;28;20592;-69
2022/04/08 08:59:47;;;;;;;6.27;3.33;;;10.60;99.90;;;;;;5063807;28;20999;-69
2022/04/08 09:02:18;;;;;;;4.00;3.47;;;10.60;99.90;;;;;;5060281;28;20533;-68
2022/04/08 09:04:45;;;;;;;1.63;1.30;;;10.90;99.90;;;;;;5061507;28;20440;-69
2022/04/08 09:07:24;;;;;;;5.77;3.70;;;10.70;99.90;;;;;;5059087;28;20674;-69
2022/04/08 09:09:52;;;;;;;4.83;3.87;;;10.50;99.90;;;;;;5061098;28;20593;-68
2022/04/08 09:12:19;;;;;;;7.23;3.50;;;10.60;99.90;;;;;;5056886;28;20525;-70
2022/04/08 09:14:49;;;;;;;6.77;3.57;;;10.60;99.90;;;;;;5060257;28;20524;-68
2022/04/08 09:17:17;;;;;;;4.37;1.97;;;10.60;99.90;;;;;;5059676;28;20849;-69
2022/04/08 09:19:48;;;;;;;2.90;2.63;;;10.50;99.90;;;;;;5059811;28;20983;-68
2022/04/08 09:22:14;;;;;;;5.27;2.17;;;10.60;99.90;;;;;;5060897;28;20641;-68
2022/04/08 09:24:42;;;;;;;4.13;2.50;;;10.40;99.90;;;;;;5061632;28;20554;-68
2022/04/08 09:27:10;;;;;;;4.77;2.77;;;10.10;99.90;;;;;;5059777;28;20512;-68
2022/04/08 09:29:36;;;;;;;2.90;2.50;;;10.20;99.90;;;;;;5060045;28;20449;-68
2022/04/08 09:32:09;;;;;;;6.13;3.47;;;10.30;99.90;;;;;;5056659;28;20509;-68
2022/04/08 09:34:36;;;;;;;4.63;2.73;;;10.40;99.90;;;;;;5060318;28;21000;-68
2022/04/08 09:37:07;;;;;;;3.60;2.57;;;10.60;99.90;;;;;;5059076;28;20459;-69
2022/04/08 09:39:33;;;;;;;3.43;2.80;;;10.60;99.90;;;;;;5057108;28;20478;-68
2022/04/08 09:42:05;;;;;;;4.40;4.00;;;10.70;99.90;;;;;;5060715;28;20802;-67
2022/04/08 09:44:35;;;;;;;6.03;2.80;;;10.70;99.90;;;;;;5059386;28;20463;-68
2022/04/08 09:47:01;;;;;;;3.10;2.37;;;10.80;99.90;;;;;;5062738;28;20979;-68
2022/04/08 09:49:28;;;;;;;4.27;2.80;;;11.00;99.90;;;;;;5060342;28;20482;-68
2022/04/08 09:51:57;;;;;;;3.97;2.50;;;11.00;99.90;;;;;;5061319;28;20432;-68
2022/04/08 09:54:28;;;;;;;2.80;2.17;;;11.10;99.90;;;;;;5055962;28;20925;-69
2022/04/08 09:56:57;;;;;;;4.37;3.17;;;11.00;99.90;;;;;;5060525;28;20527;-68
2022/04/08 09:59:29;;;;;;;2.40;1.90;;;10.80;99.90;;;;;;5056797;28;20494;-68
2022/04/08 10:01:58;;;;;;;3.73;2.73;;;10.80;99.90;;;;;;5058988;28;20425;-68
2022/04/08 10:04:25;;;;;;;2.37;2.07;;;10.70;99.90;;;;;;5057138;28;20454;-68
2022/04/08 10:06:51;;;;;;;4.07;2.77;;;10.70;99.90;;;;;;5060186;28;20505;-68
2022/04/08 10:09:20;;;;;;;3.00;2.70;;;10.90;99.90;;;;;;5060407;28;20536;-68
2022/04/08 10:11:54;;;;;;;10.00;3.43;;;10.80;99.90;;;;;;5055172;28;20550;-69
2022/04/08 10:14:36;;;;;;;6.57;2.47;;;10.60;99.90;;;;;;5058073;28;20454;-68
2022/04/08 10:17:04;;;;;;;5.00;2.90;;;10.70;99.90;;;;;;5059517;28;20837;-69
2022/04/08 10:19:31;;;;;;;3.17;2.47;;;11.10;99.90;;;;;;5062735;28;20494;-68
2022/04/08 10:21:59;;;;;;;5.20;2.63;;;11.20;99.90;;;;;;5060817;28;20773;-69
2022/04/08 10:24:28;;;;;;;9.40;3.53;;;11.00;99.90;;;;;;5053869;28;20451;-69
2022/04/08 10:27:06;;;;;;;3.10;2.50;;;10.90;99.90;;;;;;5062672;28;20465;-69
2022/04/08 10:29:34;;;;;;;4.03;2.73;;;11.00;99.90;;;;;;5065027;28;20688;-69
2022/04/08 10:32:02;;;;;;;4.10;2.00;;;10.90;99.90;;;;;;5064401;28;20902;-69
2022/04/08 10:34:32;;;;;;;3.23;2.37;;;10.80;99.90;;;;;;5063833;28;20466;-68
2022/04/08 10:37:00;;;;;;;3.77;2.60;;;10.80;99.90;;;;;;5063287;28;20497;-69
2022/04/08 10:39:27;;;;;;;3.97;1.90;;;11.10;99.90;;;;;;5061751;28;20602;-69
2022/04/08 10:41:56;;;;;;;2.17;1.63;;;11.10;99.90;;;;;;5062307;28;20490;-69
2022/04/08 10:44:36;;;;;;;2.27;1.90;;;11.10;99.90;;;;;;5064667;28;20482;-69
2022/04/08 10:47:09;;;;;;;4.40;2.07;;;11.20;99.90;;;;;;5064327;28;20939;-69
2022/04/08 10:49:48;;;;;;;1.03;0.80;;;11.00;99.90;;;;;;5060988;28;20851;-68
2022/04/08 10:52:16;;;;;;;1.40;1.10;;;11.10;99.90;;;;;;5065845;28;20988;-69
2022/04/08 10:54:42;;;;;;;5.83;1.60;;;10.90;99.90;;;;;;5061038;28;20985;-68
2022/04/08 10:57:09;;;;;;;1.67;1.40;;;10.90;99.90;;;;;;5064885;28;20838;-69
2022/04/08 10:59:37;;;;;;;2.20;1.53;;;11.10;99.90;;;;;;5062104;28;20538;-71
2022/04/08 11:02:10;;;;;;;1.20;1.10;;;10.80;98.50;;;;;;5065347;28;20469;-70
2022/04/08 11:04:37;;;;;;;2.97;1.20;;;10.60;98.50;;;;;;5058789;28;20431;-66
2022/04/08 11:07:06;;;;;;;3.00;1.30;;;10.50;97.80;;;;;;5063532;28;20806;-71
2022/04/08 11:09:34;;;;;;;3.47;1.83;;;10.70;99.10;;;;;;5059526;28;20482;-69
2022/04/08 11:12:02;;;;;;;2.40;1.20;;;10.70;96.80;;;;;;5061496;28;20963;-68
2022/04/08 11:14:29;;;;;;;2.13;1.40;;;10.70;98.30;;;;;;5062555;28;20462;-70
2022/04/08 11:16:58;;;;;;;1.30;0.80;;;10.90;99.60;;;;;;5062615;28;20467;-70
2022/04/08 11:19:25;;;;;;;3.10;1.33;;;11.10;99.90;;;;;;5062770;28;20492;-68
2022/04/08 11:21:51;;;;;;;3.10;2.20;;;11.30;99.90;;;;;;5063021;28;20463;-69
2022/04/08 11:24:19;;;;;;;2.33;1.53;;;11.50;99.90;;;;;;5061633;28;20873;-69
2022/04/08 11:26:48;;;;;;;1.90;1.73;;;11.70;99.90;;;;;;5062455;28;20492;-70
2022/04/08 11:29:16;;;;;;;3.67;2.00;;;11.60;99.90;;;;;;5060593;28;20550;-68
2022/04/08 11:31:43;;;;;;;1.80;1.53;;;11.60;99.90;;;;;;5064529;28;20546;-67
2022/04/08 11:34:13;;;;;;;5.70;1.80;;;11.50;99.80;;;;;;5063176;28;20967;-69
2022/04/08 11:36:41;;;;;;;1.10;0.80;;;11.00;99.90;;;;;;5060149;28;21937;-69
2022/04/08 11:39:09;;;;;;;2.07;1.87;;;10.80;99.40;;;;;;5058158;28;20474;-67
2022/04/08 11:41:37;;;;;;;3.20;1.77;;;10.90;99.90;;;;;;5058975;28;20528;-69
2022/04/08 11:44:07;;;;;;;1.60;1.27;;;11.00;99.90;;;;;;5062739;28;21017;-70
2022/04/08 11:46:34;;;;;;;1.87;1.20;;;11.20;99.80;;;;;;5058926;28;20463;-68
2022/04/08 11:49:04;;;;;;;4.10;1.13;;;11.30;98.70;;;;;;5069158;22;20553;-73
2022/04/08 11:51:32;;;;;;;4.50;1.63;;;11.10;97.70;;;;;;5056194;28;20472;-72
2022/04/08 11:54:04;;;;;;;1.33;0.83;;;11.20;98.10;;;;;;5058983;28;20433;-74
2022/04/08 11:56:31;;;;;;;2.60;1.50;;;11.50;97.70;;;;;;5060691;28;20750;-72
2022/04/08 11:59:00;;;;;;;2.07;1.83;;;11.70;99.40;;;;;;5056277;28;20482;-74
2022/04/08 12:01:31;;;;;;;1.43;1.33;;;11.90;97.90;;;;;;5053052;28;20459;-72
2022/04/08 12:04:00;;;;;;;2.00;1.80;;;11.90;99.10;;;;;;5051633;28;20434;-74
2022/04/08 12:06:35;;;;;;;2.40;2.20;;;11.90;98.50;;;;;;5052910;28;20465;-73
2022/04/08 12:09:03;;;;;;;2.13;1.20;;;12.00;98.00;;;;;;5059736;28;20568;-74
2022/04/08 12:11:31;;;;;;;1.80;1.40;;;12.00;96.10;;;;;;5053985;28;20466;-73
2022/04/08 12:13:58;;;;;;;2.07;1.83;;;11.70;95.20;;;;;;5056696;28;20460;-73
2022/04/08 12:16:30;;;;;;;2.40;1.30;;;11.60;96.40;;;;;;5058951;28;20458;-74
2022/04/08 12:18:56;;;;;;;7.77;2.30;;;11.50;96.10;;;;;;5060006;28;21005;-73
2022/04/08 12:21:25;;;;;;;2.10;1.70;;;11.60;96.60;;;;;;5049744;28;20467;-73
2022/04/08 12:23:55;;;;;;;1.77;1.53;;;11.70;96.80;;;;;;5044480;28;20437;-74
2022/04/08 12:26:26;;;;;;;3.00;2.10;;;11.60;97.70;;;;;;5044726;28;20993;-73
2022/04/08 12:29:05;;;;;;;4.13;2.10;;;11.50;97.90;;;;;;5041952;28;20474;-74
2022/04/08 12:31:32;;;;;;;1.97;1.37;;;11.50;96.10;;;;;;5047092;28;20461;-73
2022/04/08 12:33:59;;;;;;;1.77;1.63;;;11.30;96.00;;;;;;5047565;28;20461;-73
2022/04/08 12:36:26;;;;;;;4.00;2.17;;;11.30;97.60;;;;;;5051043;28;20450;-74
2022/04/08 12:38:54;;;;;;;3.20;1.40;;;11.40;98.90;;;;;;5051771;28;21716;-73
2022/04/08 12:41:21;;;;;;;2.50;1.67;;;11.40;98.90;;;;;;5047774;28;20485;-74
2022/04/08 12:43:48;;;;;;;2.43;1.87;;;11.20;98.90;;;;;;5054859;28;20448;-72
2022/04/08 12:46:14;;;;;;;3.10;2.20;;;11.40;97.90;;;;;;5051680;28;20998;-73
2022/04/08 12:48:41;;;;;;;2.40;2.20;;;11.00;98.80;;;;;;5058169;28;20510;-73
2022/04/08 12:51:07;;;;;;;2.80;2.40;;;11.00;99.10;;;;;;5056165;28;20541;-73
2022/04/08 12:53:35;;;;;;;2.50;1.57;;;11.10;99.90;;;;;;5050982;28;20462;-73
2022/04/08 12:56:04;;;;;;;3.27;1.80;;;10.90;98.50;;;;;;5054797;28;20520;-72